Time;durP1;ratioP1;P1;durP2;ratioP2;P2;SDS_P1;SDS_P2;PMS_P1;PMS_P2;Temp;Humidity;BMP_temperature;BMP_pressure;BME280_temperature;BME280_humidity;BME280_pressure;Samples;Min_cycle;Max_cycle;Signal;HPM_P1;HPM_P2
2021/03/20 00:01:11;;;;;;;8.30;4.45;;;4.00;54.10;;;;;;4936324;28;20046;-63
2021/03/20 00:03:37;;;;;;;9.95;4.22;;;4.00;54.30;;;;;;4945785;28;20046;-63
2021/03/20 00:06:04;;;;;;;11.93;4.38;;;4.00;54.30;;;;;;4941212;28;20038;-63
2021/03/20 00:08:30;;;;;;;6.35;4.20;;;3.90;54.30;;;;;;4955571;28;20034;-63
2021/03/20 00:10:56;;;;;;;9.18;3.80;;;3.90;54.20;;;;;;4948533;28;20038;-63
2021/03/20 00:13:23;;;;;;;9.30;4.60;;;3.90;54.20;;;;;;4942616;28;20096;-63
2021/03/20 00:15:56;;;;;;;7.70;4.10;;;3.90;54.20;;;;;;4940493;28;20448;-63
2021/03/20 00:18:26;;;;;;;10.00;4.50;;;3.90;54.30;;;;;;4954429;28;20274;-63
2021/03/20 00:20:53;;;;;;;7.15;3.97;;;3.80;54.30;;;;;;4937525;28;20491;-63
2021/03/20 00:23:18;;;;;;;7.82;4.03;;;3.80;54.30;;;;;;4946710;28;20041;-63
2021/03/20 00:25:44;;;;;;;13.48;4.47;;;3.80;54.20;;;;;;4942824;28;20038;-63
2021/03/20 00:28:12;;;;;;;12.43;4.05;;;3.80;54.20;;;;;;4942422;28;20053;-63
2021/03/20 00:30:43;;;;;;;8.82;4.43;;;3.70;54.10;;;;;;4941008;28;20106;-63
2021/03/20 00:33:08;;;;;;;8.45;4.05;;;3.70;54.10;;;;;;4945387;28;20061;-63
2021/03/20 00:35:34;;;;;;;7.70;3.83;;;3.60;54.10;;;;;;4944177;28;20035;-63
2021/03/20 00:37:59;;;;;;;9.60;4.68;;;3.60;54.10;;;;;;4954058;28;20043;-63
2021/03/20 00:40:28;;;;;;;6.63;4.10;;;3.60;54.10;;;;;;4941866;28;20101;-63
2021/03/20 00:42:55;;;;;;;9.70;3.70;;;3.50;54.10;;;;;;4946842;28;20081;-63
2021/03/20 00:45:22;;;;;;;11.63;4.43;;;3.50;54.20;;;;;;4952971;28;20039;-63
2021/03/20 00:47:48;;;;;;;8.50;4.00;;;3.40;54.30;;;;;;4943381;28;20038;-63
2021/03/20 00:50:19;;;;;;;10.50;4.35;;;3.50;54.40;;;;;;4939734;28;20042;-62
2021/03/20 00:52:47;;;;;;;12.18;4.07;;;3.40;54.50;;;;;;4943980;28;20418;-63
2021/03/20 00:55:13;;;;;;;13.98;4.95;;;3.40;54.60;;;;;;4945402;28;20040;-63
2021/03/20 00:57:39;;;;;;;9.50;4.60;;;3.40;54.60;;;;;;4948666;28;20050;-63
2021/03/20 01:00:10;;;;;;;7.78;3.53;;;3.40;54.60;;;;;;4944969;28;20031;-63
2021/03/20 01:02:38;;;;;;;8.65;3.47;;;3.40;54.70;;;;;;4943033;28;20042;-62
2021/03/20 01:05:06;;;;;;;10.82;3.70;;;3.40;54.70;;;;;;4940797;28;20496;-63
2021/03/20 01:07:32;;;;;;;7.32;4.10;;;3.40;54.70;;;;;;4944269;28;20101;-63
2021/03/20 01:09:58;;;;;;;7.28;4.20;;;3.30;54.60;;;;;;4945972;28;20117;-62
2021/03/20 01:12:25;;;;;;;11.20;4.15;;;3.30;54.50;;;;;;4934725;28;20397;-62
2021/03/20 01:14:54;;;;;;;7.95;4.03;;;3.20;54.50;;;;;;4943594;28;20046;-62
2021/03/20 01:17:20;;;;;;;7.47;4.03;;;3.20;54.60;;;;;;4950248;28;20035;-62
2021/03/20 01:19:45;;;;;;;9.27;4.28;;;3.20;54.70;;;;;;4944051;28;20039;-63
2021/03/20 01:22:11;;;;;;;10.02;4.18;;;3.10;54.70;;;;;;4943820;28;20035;-63
2021/03/20 01:24:36;;;;;;;9.27;4.22;;;3.10;54.70;;;;;;4946964;28;20503;-62
2021/03/20 01:27:05;;;;;;;9.98;4.85;;;3.10;54.80;;;;;;4943637;28;20126;-62
2021/03/20 01:29:30;;;;;;;7.97;4.57;;;3.10;54.90;;;;;;4948637;28;20031;-63
2021/03/20 09:53:17;;;;;;;7.30;2.92;;;11.50;41.30;;;;;;4931645;28;20062;-71
2021/03/20 09:55:50;;;;;;;6.50;3.10;;;11.40;41.40;;;;;;4943958;28;20067;-74
2021/03/20 09:58:19;;;;;;;7.53;3.35;;;11.40;41.50;;;;;;4934949;28;20036;-75
2021/03/20 10:01:01;;;;;;;6.72;3.35;;;11.50;41.90;;;;;;4934668;28;20040;-69
2021/03/20 10:03:50;;;;;;;7.55;3.50;;;11.60;41.80;;;;;;4940860;28;20461;-70
2021/03/20 10:06:25;;;;;;;6.78;3.33;;;11.60;41.60;;;;;;4921610;28;20170;-71
2021/03/20 10:09:08;;;;;;;4.78;3.25;;;11.80;41.30;;;;;;4930561;28;20409;-66
2021/03/20 10:11:38;;;;;;;9.80;3.53;;;11.80;41.40;;;;;;4924910;28;20032;-75
2021/03/20 10:14:29;;;;;;;7.60;3.85;;;12.00;41.60;;;;;;4922432;28;20401;-66
2021/03/20 10:17:21;;;;;;;9.73;3.45;;;12.30;41.20;;;;;;4927285;28;20122;-69
2021/03/20 10:20:26;;;;;;;8.23;3.55;;;12.80;41.00;;;;;;4922156;28;20548;-72
2021/03/20 10:22:59;;;;;;;5.30;3.17;;;13.40;40.30;;;;;;4901592;29;20126;-72
2021/03/20 10:25:25;;;;;;;5.32;3.28;;;;;;;;;;4914899;28;20067;-71
2021/03/20 10:27:57;;;;;;;6.55;3.38;;;;;;;;;;4929204;28;20589;-71
2021/03/20 10:30:25;;;;;;;8.35;4.18;;;;;;;;;;4922177;28;20042;-70
2021/03/20 10:33:20;;;;;;;6.95;3.63;;;13.90;39.60;;;;;;4920844;28;20039;-71
2021/03/20 10:35:45;;;;;;;5.40;3.50;;;14.20;38.40;;;;;;4912523;28;20063;-71
2021/03/20 10:38:21;;;;;;;6.95;3.55;;;14.20;38.20;;;;;;4917621;28;20039;-72
2021/03/20 10:41:01;;;;;;;10.45;3.97;;;14.00;38.10;;;;;;4908331;28;20732;-71
2021/03/20 10:43:29;;;;;;;6.75;3.97;;;13.80;38.50;;;;;;4912146;28;20090;-71
2021/03/20 10:45:55;;;;;;;7.00;3.90;;;13.80;39.50;;;;;;4917336;28;20095;-66
2021/03/20 10:48:25;;;;;;;7.13;4.07;;;13.80;39.10;;;;;;4921982;28;20423;-71
2021/03/20 10:50:58;;;;;;;9.13;4.45;;;13.90;39.50;;;;;;4919091;28;20089;-71
2021/03/20 10:53:29;;;;;;;7.07;4.18;;;14.00;39.50;;;;;;4923108;28;20584;-70
2021/03/20 10:55:59;;;;;;;7.40;4.28;;;14.10;39.20;;;;;;4922651;28;20110;-70
2021/03/20 10:58:34;;;;;;;8.88;4.07;;;14.20;39.00;;;;;;4920914;28;20035;-71
2021/03/20 11:01:00;;;;;;;9.07;3.88;;;14.10;38.80;;;;;;4928767;28;20094;-71
2021/03/20 11:03:41;;;;;;;7.75;3.97;;;14.00;38.90;;;;;;4929348;28;20048;-71
2021/03/20 11:06:17;;;;;;;5.70;3.88;;;;;;;;;;4928004;28;20126;-72
2021/03/20 11:08:44;;;;;;;6.10;3.65;;;;;;;;;;4920522;28;20047;-71
2021/03/20 11:11:19;;;;;;;6.18;4.20;;;;;;;;;;4916948;28;20040;-70
2021/03/20 11:13:50;;;;;;;7.47;4.10;;;;;;;;;;4923523;28;20043;-70
2021/03/20 11:16:18;;;;;;;8.65;3.75;;;;;;;;;;4916986;28;20043;-71
2021/03/20 11:18:49;;;;;;;7.82;4.55;;;;;;;;;;4923276;28;20028;-72
2021/03/20 11:21:30;;;;;;;7.13;4.10;;;13.80;39.00;;;;;;4917168;28;20628;-71
2021/03/20 11:24:08;;;;;;;7.78;3.95;;;15.70;38.40;;;;;;4914313;28;20047;-71
2021/03/20 11:26:44;;;;;;;9.90;4.47;;;16.00;37.70;;;;;;4919819;28;22816;-72
2021/03/20 11:29:18;;;;;;;11.88;4.32;;;16.00;37.30;;;;;;4922338;28;20135;-72
2021/03/20 11:32:02;;;;;;;7.68;4.28;;;15.90;37.60;;;;;;4924385;28;20572;-72
2021/03/20 11:34:31;;;;;;;13.23;4.28;;;15.80;37.50;;;;;;4924631;28;20074;-72
2021/03/20 11:37:00;;;;;;;6.72;4.30;;;15.70;37.80;;;;;;4930710;28;20067;-72
2021/03/20 11:39:27;;;;;;;8.23;4.55;;;15.70;38.10;;;;;;4924947;28;20035;-72
2021/03/20 11:42:11;;;;;;;7.28;4.40;;;15.90;38.20;;;;;;4927258;28;20039;-71
2021/03/20 11:44:48;;;;;;;8.45;4.82;;;16.20;37.70;;;;;;4916631;28;20044;-72
2021/03/20 11:47:22;;;;;;;9.80;4.55;;;16.30;37.60;;;;;;4922519;28;20035;-72
2021/03/20 11:49:55;;;;;;;6.80;4.40;;;16.40;37.30;;;;;;4919952;28;20047;-72
2021/03/20 11:52:26;;;;;;;8.98;4.80;;;16.60;37.70;;;;;;4915785;28;20118;-71
2021/03/20 11:55:29;;;;;;;5.07;4.25;;;16.80;37.20;;;;;;4921059;28;20075;-72
2021/03/20 11:58:01;;;;;;;11.40;5.07;;;16.90;36.90;;;;;;4921452;28;20441;-70
2021/03/20 12:00:35;;;;;;;6.22;4.20;;;16.80;36.80;;;;;;4923075;28;20103;-72
2021/03/20 12:03:03;;;;;;;7.20;4.63;;;16.80;36.90;;;;;;4927635;28;20094;-72
2021/03/20 12:05:30;;;;;;;9.43;4.65;;;;;;;;;;4922041;28;20558;-72
2021/03/20 12:08:15;;;;;;;6.25;4.78;;;;;;;;;;4927763;28;20039;-72
2021/03/20 12:10:54;;;;;;;7.03;5.05;;;;;;;;;;4928205;28;20040;-72
2021/03/20 12:13:44;;;;;;;7.55;4.97;;;16.90;36.90;;;;;;4916444;28;20043;-72
2021/03/20 12:16:30;;;;;;;8.43;4.72;;;15.90;37.80;;;;;;4920631;28;20044;-72
2021/03/20 12:19:23;;;;;;;8.75;5.00;;;15.80;38.00;;;;;;4913871;28;20039;-72
2021/03/20 12:22:07;;;;;;;7.82;5.05;;;15.50;38.10;;;;;;4930061;28;20067;-71
2021/03/20 12:24:36;;;;;;;11.43;5.45;;;15.30;38.40;;;;;;4924663;28;20063;-70
2021/03/20 12:27:23;;;;;;;7.78;5.13;;;15.10;38.90;;;;;;4927394;28;20043;-70
2021/03/20 12:29:50;;;;;;;8.32;5.43;;;15.00;39.50;;;;;;4927912;28;20047;-69
2021/03/20 12:32:34;;;;;;;6.82;5.20;;;14.90;39.90;;;;;;4932225;28;20040;-71
2021/03/20 12:35:19;;;;;;;7.55;5.55;;;14.80;39.80;;;;;;4924940;28;20098;-71
2021/03/20 12:38:03;;;;;;;6.00;4.95;;;14.60;40.00;;;;;;4929307;28;20062;-71
2021/03/20 12:40:30;;;;;;;9.40;5.30;;;14.50;40.10;;;;;;4930534;28;20531;-71
2021/03/20 12:43:04;;;;;;;7.43;5.25;;;14.40;40.20;;;;;;4927177;28;20114;-72
2021/03/20 12:45:33;;;;;;;9.82;5.10;;;14.30;40.60;;;;;;4928793;28;20520;-71
2021/03/20 12:47:59;;;;;;;10.40;5.38;;;14.20;40.90;;;;;;4929230;28;20028;-72
2021/03/20 12:50:28;;;;;;;8.10;5.70;;;;;;;;;;4921312;28;20042;-72
2021/03/20 12:52:53;;;;;;;8.75;5.38;;;14.10;41.30;;;;;;4917729;28;20055;-72
2021/03/20 12:55:19;;;;;;;7.32;5.30;;;13.90;41.30;;;;;;4920408;28;20044;-72
2021/03/20 12:57:44;;;;;;;6.82;5.72;;;13.80;41.60;;;;;;4918725;28;20070;-72
2021/03/20 13:00:18;;;;;;;9.35;5.75;;;13.80;41.90;;;;;;4925036;28;20050;-72
2021/03/20 13:02:43;;;;;;;10.55;5.70;;;13.70;41.90;;;;;;4923317;28;20747;-71
2021/03/20 13:05:13;;;;;;;11.88;5.18;;;;;;;;;;4920198;28;20054;-71
2021/03/20 13:07:39;;;;;;;8.07;5.40;;;;;;;;;;4916198;28;20433;-71
2021/03/20 13:10:05;;;;;;;9.27;5.70;;;;;;;;;;4927255;28;20032;-72
2021/03/20 13:12:31;;;;;;;9.70;6.30;;;;;;;;;;4919456;28;21995;-71
2021/03/20 13:14:57;;;;;;;8.98;6.43;;;13.60;42.10;;;;;;4923362;28;20043;-73
2021/03/20 13:17:22;;;;;;;10.35;6.15;;;13.00;43.20;;;;;;4923031;28;20190;-71
2021/03/20 13:19:50;;;;;;;10.38;6.35;;;12.90;43.40;;;;;;4917359;28;20402;-71
2021/03/20 13:22:16;;;;;;;8.15;5.88;;;12.80;43.70;;;;;;4930990;28;20058;-72
2021/03/20 13:24:41;;;;;;;9.32;6.20;;;12.80;43.90;;;;;;4919471;28;20153;-71
2021/03/20 13:27:09;;;;;;;10.02;6.25;;;12.70;44.20;;;;;;4915545;28;20687;-72
2021/03/20 13:29:35;;;;;;;8.10;6.32;;;12.70;44.00;;;;;;4922664;28;20105;-73
2021/03/20 13:32:00;;;;;;;9.55;5.97;;;12.70;44.20;;;;;;4922271;28;20043;-72
2021/03/20 13:34:26;;;;;;;10.70;6.57;;;12.60;44.90;;;;;;4918449;28;20044;-70
2021/03/20 13:36:52;;;;;;;9.57;6.32;;;12.60;44.50;;;;;;4928116;28;20054;-70
2021/03/20 13:39:18;;;;;;;9.90;6.15;;;12.60;45.30;;;;;;4917544;28;20043;-72
2021/03/20 13:41:43;;;;;;;9.68;7.07;;;12.50;44.90;;;;;;4913921;28;20749;-72
2021/03/20 13:44:09;;;;;;;12.75;6.93;;;12.50;45.10;;;;;;4921385;28;20043;-72
2021/03/20 13:46:36;;;;;;;13.52;6.15;;;12.50;45.80;;;;;;4929945;28;20102;-74
2021/03/20 13:49:08;;;;;;;13.98;7.07;;;12.50;45.30;;;;;;4923710;28;20048;-72
2021/03/20 13:51:36;;;;;;;8.52;6.57;;;12.50;45.30;;;;;;4923031;28;20117;-71
2021/03/20 13:54:05;;;;;;;11.07;6.65;;;12.50;45.30;;;;;;4927123;28;20424;-74
2021/03/20 13:56:31;;;;;;;9.25;7.00;;;12.50;45.60;;;;;;4911915;28;20050;-70
2021/03/20 13:58:56;;;;;;;10.57;7.35;;;12.40;45.70;;;;;;4913482;28;20717;-68
2021/03/20 14:01:22;;;;;;;12.73;6.90;;;12.40;46.00;;;;;;4916212;28;20110;-71
2021/03/20 14:03:47;;;;;;;10.75;6.88;;;12.40;46.10;;;;;;4915873;28;20067;-72
2021/03/20 14:06:13;;;;;;;14.07;7.47;;;12.40;46.20;;;;;;4924198;28;20047;-71
2021/03/20 14:08:39;;;;;;;12.30;6.97;;;12.40;46.30;;;;;;4923632;28;20655;-72
2021/03/20 14:11:06;;;;;;;11.15;7.70;;;12.30;46.30;;;;;;4920807;28;20042;-72
2021/03/20 14:13:35;;;;;;;10.98;7.65;;;12.30;46.50;;;;;;4926326;28;20564;-71
2021/03/20 14:16:01;;;;;;;9.63;7.47;;;12.30;46.70;;;;;;4920970;28;20079;-74
2021/03/20 14:18:27;;;;;;;14.63;8.52;;;12.30;46.90;;;;;;4920160;28;20181;-75
2021/03/20 14:20:58;;;;;;;16.58;8.10;;;12.30;47.20;;;;;;4923967;28;20531;-74
2021/03/20 14:23:25;;;;;;;15.25;8.23;;;12.30;47.50;;;;;;4923493;28;20044;-74
2021/03/20 14:25:55;;;;;;;13.10;7.72;;;12.30;47.50;;;;;;4914864;28;20043;-76
2021/03/20 14:28:27;;;;;;;11.60;7.53;;;12.30;47.60;;;;;;4918733;28;20040;-75
2021/03/20 14:30:53;;;;;;;11.90;7.88;;;12.20;47.60;;;;;;4918981;28;20039;-75
2021/03/20 14:33:21;;;;;;;13.93;7.95;;;12.20;47.80;;;;;;4931606;28;20420;-75
2021/03/20 14:35:48;;;;;;;15.85;8.75;;;12.20;48.00;;;;;;4928298;28;20036;-75
2021/03/20 14:38:17;;;;;;;11.93;8.43;;;12.20;48.20;;;;;;4917940;28;20109;-74
2021/03/20 14:40:44;;;;;;;12.95;8.18;;;12.20;48.50;;;;;;4917925;28;20265;-71
2021/03/20 14:43:11;;;;;;;11.98;7.68;;;12.20;48.60;;;;;;4924559;28;20044;-74
2021/03/20 14:45:36;;;;;;;14.48;8.40;;;12.20;48.70;;;;;;4921011;28;20306;-72
2021/03/20 14:48:03;;;;;;;11.43;8.15;;;12.20;48.80;;;;;;4926502;28;20048;-72
2021/03/20 14:50:32;;;;;;;14.02;8.15;;;12.20;48.40;;;;;;4913569;28;20047;-72
2021/03/20 14:53:05;;;;;;;15.57;8.32;;;12.20;49.00;;;;;;4926004;28;20622;-70
2021/03/20 14:55:31;;;;;;;16.05;8.63;;;12.30;49.10;;;;;;4902857;28;21862;-70
2021/03/20 14:57:59;;;;;;;16.27;7.97;;;12.20;49.20;;;;;;4913995;28;20098;-71
2021/03/20 15:00:27;;;;;;;12.57;7.72;;;12.20;49.20;;;;;;4908371;28;20079;-69
2021/03/20 15:02:53;;;;;;;12.80;8.43;;;12.20;49.40;;;;;;4916322;28;20039;-70
2021/03/20 15:05:21;;;;;;;12.63;8.30;;;12.20;49.50;;;;;;4920168;28;20638;-71
2021/03/20 15:07:48;;;;;;;12.27;8.10;;;12.10;49.70;;;;;;4919323;28;20608;-71
2021/03/20 15:10:41;;;;;;;14.57;8.07;;;12.10;49.90;;;;;;4936652;28;20058;-69
2021/03/20 15:13:08;;;;;;;11.77;7.65;;;12.10;50.10;;;;;;4912887;28;20120;-69
2021/03/20 15:15:34;;;;;;;10.32;8.02;;;12.00;50.00;;;;;;4926631;23;20078;-67
2021/03/20 15:18:01;;;;;;;12.95;8.13;;;12.00;50.30;;;;;;4913136;28;20084;-66
2021/03/20 15:20:30;;;;;;;15.50;8.45;;;12.00;50.50;;;;;;4913293;28;20040;-64
2021/03/20 15:22:56;;;;;;;12.95;7.93;;;11.90;50.70;;;;;;4911776;29;20151;-64
2021/03/20 15:25:22;;;;;;;9.65;7.80;;;11.90;50.80;;;;;;4919176;28;20035;-66
2021/03/20 15:27:48;;;;;;;16.02;8.10;;;11.80;51.00;;;;;;4916131;28;20047;-67
2021/03/20 15:30:29;;;;;;;13.48;7.80;;;11.80;51.20;;;;;;4914460;28;20497;-67
2021/03/20 15:32:57;;;;;;;12.88;8.60;;;11.80;51.30;;;;;;4913720;28;20116;-66
2021/03/20 15:35:26;;;;;;;12.40;8.10;;;11.70;51.50;;;;;;4888147;28;20080;-66
2021/03/20 15:37:54;;;;;;;13.30;8.57;;;11.70;51.70;;;;;;4901718;28;20250;-65
2021/03/20 15:40:30;;;;;;;13.00;8.18;;;11.60;51.90;;;;;;4898790;28;20650;-64
2021/03/20 15:42:59;;;;;;;16.08;8.13;;;11.60;52.10;;;;;;4915741;28;20052;-65
2021/03/20 15:45:25;;;;;;;18.23;8.90;;;11.60;52.30;;;;;;4898065;28;20753;-64
2021/03/20 15:47:53;;;;;;;13.55;8.15;;;11.60;52.50;;;;;;4892683;28;20032;-64
2021/03/20 15:50:25;;;;;;;17.65;9.45;;;11.60;52.60;;;;;;4889179;28;20808;-64
2021/03/20 15:52:51;;;;;;;17.10;9.48;;;11.50;52.80;;;;;;4882859;28;20957;-66
2021/03/20 15:55:17;;;;;;;16.88;9.85;;;11.50;52.90;;;;;;4894343;28;20110;-64
2021/03/20 15:57:43;;;;;;;15.13;9.30;;;11.50;53.10;;;;;;4886923;28;20040;-65
2021/03/20 16:00:10;;;;;;;11.52;7.78;;;11.50;53.30;;;;;;4892023;28;20082;-65
2021/03/20 16:02:38;;;;;;;10.85;7.25;;;11.50;53.40;;;;;;4890811;28;20040;-65
2021/03/20 16:07:39;;;;;;;15.10;8.77;;;11.40;53.70;;;;;;5450599;23;20054;-65
2021/03/20 16:10:06;;;;;;;13.52;8.68;;;11.40;54.10;;;;;;4898649;28;20041;-65
2021/03/20 16:12:31;;;;;;;20.30;10.38;;;11.30;54.20;;;;;;4897857;28;22220;-66
2021/03/20 16:14:59;;;;;;;20.58;11.70;;;11.30;54.40;;;;;;4875333;28;20166;-66
2021/03/20 16:17:25;;;;;;;19.70;10.70;;;11.30;54.50;;;;;;4896529;28;20046;-65
2021/03/20 16:19:55;;;;;;;17.23;10.65;;;11.30;54.90;;;;;;4893708;28;20079;-64
2021/03/20 16:22:21;;;;;;;15.77;10.27;;;11.30;55.10;;;;;;4901079;28;20047;-63
2021/03/20 16:24:49;;;;;;;23.15;11.07;;;11.30;55.20;;;;;;4905160;28;20393;-63
2021/03/20 16:27:14;;;;;;;18.77;11.93;;;11.30;55.30;;;;;;4914513;28;20655;-65
2021/03/20 16:29:40;;;;;;;18.95;10.73;;;11.30;55.50;;;;;;4918965;28;20043;-66
2021/03/20 16:32:06;;;;;;;19.75;12.20;;;11.20;55.60;;;;;;4902465;28;20035;-65
2021/03/20 16:34:32;;;;;;;16.95;11.82;;;11.20;55.80;;;;;;4909789;28;20044;-65
2021/03/20 16:36:58;;;;;;;20.63;12.13;;;11.20;56.00;;;;;;4902234;28;20055;-66
2021/03/20 16:39:23;;;;;;;22.88;12.32;;;11.20;56.20;;;;;;4908757;28;20753;-65
2021/03/20 16:41:51;;;;;;;17.23;11.43;;;11.20;56.40;;;;;;4904176;28;20046;-64
2021/03/20 16:44:17;;;;;;;21.20;11.57;;;11.20;56.60;;;;;;4909441;28;20043;-66
2021/03/20 16:46:45;;;;;;;16.88;10.65;;;11.20;56.60;;;;;;4912502;28;20708;-66
2021/03/20 16:49:11;;;;;;;19.98;10.30;;;11.10;56.60;;;;;;4909591;28;20051;-64
2021/03/20 16:51:37;;;;;;;15.15;10.27;;;11.20;56.80;;;;;;4914711;28;21914;-65
2021/03/20 16:54:04;;;;;;;14.43;8.75;;;11.20;56.80;;;;;;4909795;28;20052;-64
2021/03/20 16:56:31;;;;;;;14.27;8.82;;;11.10;56.90;;;;;;4910828;28;20839;-65
2021/03/20 16:58:57;;;;;;;15.57;8.52;;;11.10;57.00;;;;;;4895372;28;20043;-64
2021/03/20 17:01:24;;;;;;;13.82;8.45;;;11.10;57.10;;;;;;4904618;28;20042;-64
2021/03/20 17:03:50;;;;;;;13.57;8.43;;;11.10;57.20;;;;;;4907684;28;20565;-64
2021/03/20 17:06:18;;;;;;;13.20;8.55;;;11.10;57.30;;;;;;4905884;28;20035;-65
2021/03/20 17:08:46;;;;;;;15.98;9.88;;;11.10;57.50;;;;;;4910242;28;20418;-63
2021/03/20 17:11:11;;;;;;;19.15;10.23;;;11.10;57.50;;;;;;4903263;28;20058;-67
2021/03/20 17:13:40;;;;;;;19.40;12.75;;;11.10;57.50;;;;;;4905042;28;20225;-64
2021/03/20 17:16:06;;;;;;;20.13;12.85;;;11.20;57.60;;;;;;4910337;28;20043;-63
2021/03/20 17:18:35;;;;;;;25.58;13.68;;;11.10;57.60;;;;;;4921413;28;20051;-64
2021/03/20 17:21:07;;;;;;;19.90;13.50;;;11.10;57.70;;;;;;4920482;28;22448;-66
2021/03/20 17:23:33;;;;;;;26.17;14.40;;;11.00;57.80;;;;;;4916163;28;20062;-65
2021/03/20 17:26:00;;;;;;;25.67;14.57;;;11.00;57.90;;;;;;4920949;28;20131;-65
2021/03/20 17:28:30;;;;;;;27.48;15.02;;;11.00;58.00;;;;;;4915138;28;20052;-65
2021/03/20 17:31:22;;;;;;;21.55;13.30;;;11.00;58.20;;;;;;4915086;28;20511;-66
2021/03/20 17:33:48;;;;;;;28.02;14.55;;;11.00;58.10;;;;;;4916860;28;20527;-66
2021/03/20 17:36:16;;;;;;;21.48;15.40;;;11.00;58.30;;;;;;4921510;28;20043;-65
2021/03/20 17:38:43;;;;;;;28.48;15.90;;;10.90;58.40;;;;;;4914109;28;20049;-66
2021/03/20 17:43:40;;;;;;;26.70;15.63;;;10.90;58.70;;;;;;4891967;28;20050;-69
2021/03/20 17:46:11;;;;;;;25.23;15.60;;;10.90;58.80;;;;;;4912537;28;20036;-69
2021/03/20 17:48:37;;;;;;;24.25;16.25;;;10.90;58.90;;;;;;4911317;28;23620;-69
2021/03/20 17:51:02;;;;;;;26.77;17.02;;;10.90;59.00;;;;;;4917695;28;20051;-69
2021/03/20 17:53:30;;;;;;;26.55;16.48;;;10.90;59.10;;;;;;4918558;28;20057;-68
2021/03/20 17:55:58;;;;;;;30.02;16.08;;;10.90;59.20;;;;;;4931738;28;20243;-67
2021/03/20 17:58:26;;;;;;;25.88;15.45;;;10.80;59.20;;;;;;4916193;28;20046;-66
2021/03/20 18:00:51;;;;;;;30.50;14.80;;;10.80;59.30;;;;;;4907199;28;20659;-67
2021/03/20 18:03:18;;;;;;;24.45;14.07;;;10.80;59.50;;;;;;4907365;28;20039;-66
2021/03/20 18:05:44;;;;;;;20.88;12.93;;;10.80;59.60;;;;;;4915114;28;20040;-67
2021/03/20 18:08:10;;;;;;;19.58;12.20;;;10.80;59.60;;;;;;4914853;28;20386;-67
2021/03/20 18:10:42;;;;;;;21.45;12.63;;;10.80;59.80;;;;;;4902687;28;20154;-67
2021/03/20 18:13:10;;;;;;;15.82;10.50;;;10.70;59.90;;;;;;4933480;28;20511;-68
2021/03/20 18:15:36;;;;;;;14.73;9.90;;;10.70;60.00;;;;;;4919841;28;20821;-67
2021/03/20 18:18:03;;;;;;;15.70;9.60;;;10.70;60.10;;;;;;4928593;28;20485;-68
2021/03/20 18:20:29;;;;;;;15.95;10.65;;;10.80;60.20;;;;;;4922343;28;20576;-68
2021/03/20 18:22:58;;;;;;;17.33;10.02;;;10.70;60.30;;;;;;4924084;28;20047;-69
2021/03/20 18:25:25;;;;;;;16.98;9.65;;;10.80;60.40;;;;;;4925318;28;20303;-68
2021/03/20 18:27:51;;;;;;;12.77;9.18;;;10.80;60.50;;;;;;4922239;28;20035;-68
2021/03/20 18:30:20;;;;;;;14.55;9.05;;;10.80;60.50;;;;;;4925817;28;20054;-68
2021/03/20 18:32:49;;;;;;;14.30;8.93;;;10.80;60.60;;;;;;4944141;28;20032;-68
2021/03/20 18:35:16;;;;;;;16.83;9.18;;;10.80;60.80;;;;;;4917689;28;20043;-69
2021/03/20 18:37:44;;;;;;;17.70;9.18;;;10.80;60.80;;;;;;4918389;28;20042;-68
2021/03/20 18:40:15;;;;;;;20.05;9.50;;;10.80;60.80;;;;;;4911386;28;20341;-69
2021/03/20 18:42:43;;;;;;;13.93;8.10;;;10.80;60.90;;;;;;4918132;28;20066;-68
2021/03/20 18:45:11;;;;;;;12.90;8.60;;;10.80;60.90;;;;;;4910301;28;20918;-69
2021/03/20 18:47:37;;;;;;;12.60;8.50;;;10.80;61.00;;;;;;4906285;28;20492;-67
2021/03/20 18:50:07;;;;;;;12.30;7.85;;;10.80;61.00;;;;;;4905280;28;20492;-68
2021/03/20 18:52:35;;;;;;;11.85;6.70;;;10.80;61.20;;;;;;4904651;28;20564;-71
2021/03/20 18:55:01;;;;;;;12.40;7.93;;;10.80;61.20;;;;;;4918290;28;20039;-67
2021/03/20 18:57:27;;;;;;;14.52;9.18;;;10.80;61.30;;;;;;4920421;28;20101;-68
2021/03/20 18:59:55;;;;;;;12.25;7.90;;;10.80;61.30;;;;;;4920493;28;20326;-69
2021/03/20 19:02:22;;;;;;;8.93;6.18;;;10.80;61.40;;;;;;4922897;28;20584;-68
2021/03/20 19:04:48;;;;;;;9.40;6.13;;;10.80;62.20;;;;;;4923952;28;20043;-67
2021/03/20 19:07:14;;;;;;;8.48;5.70;;;10.80;61.60;;;;;;4921074;28;20051;-68
2021/03/20 19:09:40;;;;;;;8.45;5.25;;;10.80;61.60;;;;;;4925236;28;20150;-67
2021/03/20 19:12:06;;;;;;;9.98;5.15;;;10.80;61.60;;;;;;4919294;28;20226;-68
2021/03/20 19:14:34;;;;;;;6.60;4.38;;;10.70;61.60;;;;;;4909687;28;20842;-68
2021/03/20 19:17:02;;;;;;;5.93;3.92;;;10.70;61.70;;;;;;4923618;28;20046;-69
2021/03/20 19:19:27;;;;;;;7.43;3.65;;;10.70;61.70;;;;;;4920293;28;20122;-69
2021/03/20 19:21:54;;;;;;;9.48;3.50;;;10.70;61.80;;;;;;4916201;28;20448;-69
2021/03/20 19:24:19;;;;;;;6.60;3.50;;;10.70;61.70;;;;;;4914331;28;20797;-69
2021/03/20 19:26:45;;;;;;;5.22;2.72;;;10.70;61.70;;;;;;4919255;28;20043;-70
2021/03/20 19:29:15;;;;;;;5.25;2.90;;;10.70;61.80;;;;;;4921222;28;20450;-70
2021/03/20 19:31:41;;;;;;;3.28;2.78;;;10.60;61.70;;;;;;4921966;28;20094;-71
2021/03/20 19:34:08;;;;;;;5.35;2.45;;;10.60;61.70;;;;;;4923020;28;20040;-70
2021/03/20 19:36:34;;;;;;;4.80;2.78;;;10.60;61.80;;;;;;4911705;28;20671;-69
2021/03/20 19:38:59;;;;;;;4.07;2.15;;;10.60;62.00;;;;;;4915713;28;20046;-69
2021/03/20 19:41:27;;;;;;;5.15;2.40;;;10.60;61.90;;;;;;4927785;28;20106;-70
2021/03/20 19:43:53;;;;;;;2.75;1.90;;;10.60;62.00;;;;;;4929226;28;20054;-71
2021/03/20 19:46:23;;;;;;;3.83;2.20;;;10.60;62.00;;;;;;4926328;28;20043;-69
2021/03/20 19:48:49;;;;;;;3.97;2.65;;;10.50;62.00;;;;;;4919521;28;20094;-71
2021/03/20 19:51:15;;;;;;;5.65;2.13;;;10.50;62.00;;;;;;4907600;28;20109;-72
2021/03/20 19:53:43;;;;;;;4.30;2.17;;;10.50;62.00;;;;;;4922968;28;20118;-69
2021/03/20 19:56:10;;;;;;;4.00;2.55;;;10.50;62.00;;;;;;4921879;28;20040;-69
2021/03/20 19:58:36;;;;;;;3.92;1.88;;;10.50;62.10;;;;;;4921346;28;20099;-69
2021/03/20 20:01:07;;;;;;;4.35;2.58;;;10.50;62.10;;;;;;4913624;28;20040;-66
2021/03/20 20:03:37;;;;;;;6.65;2.45;;;10.50;62.20;;;;;;4931726;28;20516;-67
2021/03/20 20:06:03;;;;;;;5.97;2.67;;;10.40;62.10;;;;;;4917509;28;20050;-67
2021/03/20 20:08:29;;;;;;;3.15;2.38;;;10.40;62.10;;;;;;4912873;28;20043;-69
2021/03/20 20:10:56;;;;;;;4.78;2.55;;;10.50;62.20;;;;;;4921587;28;20488;-68
2021/03/20 20:13:22;;;;;;;6.28;2.75;;;10.40;62.20;;;;;;4917835;28;20042;-67
2021/03/20 20:15:47;;;;;;;3.35;2.25;;;10.40;62.20;;;;;;4916684;28;20457;-68
2021/03/20 20:18:22;;;;;;;5.15;1.90;;;10.40;62.20;;;;;;4919972;28;20047;-68
2021/03/20 20:20:48;;;;;;;7.00;2.45;;;10.40;62.20;;;;;;4912174;28;20149;-69
2021/03/20 20:23:14;;;;;;;4.53;2.10;;;10.40;62.20;;;;;;4923204;28;20047;-67
2021/03/20 20:25:40;;;;;;;8.77;2.42;;;10.40;62.20;;;;;;4922626;28;20421;-70
2021/03/20 20:28:11;;;;;;;3.25;2.35;;;10.40;62.30;;;;;;4926281;28;20110;-68
2021/03/20 20:30:38;;;;;;;4.43;2.25;;;10.40;62.40;;;;;;4920497;28;20544;-69
2021/03/20 20:33:05;;;;;;;7.18;2.67;;;10.40;62.40;;;;;;4915401;28;20074;-67
2021/03/20 20:35:30;;;;;;;3.30;2.20;;;10.40;62.30;;;;;;4916158;28;20575;-67
2021/03/20 20:37:56;;;;;;;4.95;2.63;;;10.30;62.20;;;;;;4933386;28;20047;-68
2021/03/20 20:40:24;;;;;;;3.92;2.72;;;10.30;62.30;;;;;;4925940;28;20035;-68
2021/03/20 20:42:57;;;;;;;7.32;2.50;;;10.30;62.40;;;;;;4924554;28;20040;-69
2021/03/20 20:45:24;;;;;;;3.22;2.38;;;10.30;62.40;;;;;;4918133;28;20552;-66
2021/03/20 20:47:51;;;;;;;3.67;2.38;;;10.20;62.30;;;;;;4921801;28;20055;-67
2021/03/20 20:50:22;;;;;;;6.35;2.95;;;10.30;62.50;;;;;;4923199;28;20032;-67
2021/03/20 20:52:48;;;;;;;5.00;2.67;;;10.20;62.50;;;;;;4917722;28;20071;-67
2021/03/20 20:55:13;;;;;;;4.95;2.55;;;10.20;62.50;;;;;;4920318;28;20127;-68
2021/03/20 20:57:44;;;;;;;4.05;2.85;;;10.20;62.50;;;;;;4921419;28;20028;-72
2021/03/20 21:00:21;;;;;;;3.70;2.70;;;10.20;62.60;;;;;;4918362;28;20035;-67
2021/03/20 21:02:49;;;;;;;4.30;2.75;;;10.20;62.70;;;;;;4915008;28;20201;-69
2021/03/20 21:05:15;;;;;;;3.38;2.58;;;10.20;62.60;;;;;;4918760;28;20456;-69
2021/03/20 21:07:41;;;;;;;6.07;3.03;;;10.30;62.80;;;;;;4922395;28;20043;-68
2021/03/20 21:10:07;;;;;;;5.82;3.00;;;10.30;62.80;;;;;;4917083;28;20258;-70
2021/03/20 21:12:33;;;;;;;6.38;2.72;;;10.20;62.60;;;;;;4917630;28;20102;-70
2021/03/20 21:14:58;;;;;;;4.50;2.35;;;10.20;62.50;;;;;;4921556;28;20040;-68
2021/03/20 21:17:24;;;;;;;3.78;2.47;;;10.20;62.60;;;;;;4926774;28;20260;-69
2021/03/20 21:19:49;;;;;;;2.95;2.38;;;10.20;62.80;;;;;;4925924;28;20138;-68
2021/03/20 21:22:15;;;;;;;4.03;2.60;;;10.20;62.90;;;;;;4926789;28;20043;-68
2021/03/20 21:24:40;;;;;;;4.90;2.60;;;10.20;62.90;;;;;;4918737;28;20046;-67